Aérodrome :
LOGIN :

S'inscrire | Disclaimer

   EN    FR    IT 

 










Légende :    VFR   VFR Marginal   IFR   IFR Intensif   IFR Très Intensif
Visi : 
Plafond : 
>= 8 km
>= 3000ft
5 à 8 km
1000 à 3000 ft
1500m à 5 km
500 à 1000 ft
800 à 1500m
200 à 500 ft
< 800m
< 200 ft
Symboles :   Orages  Brouillard  Fortes neiges  Fortes précipitations  Vent > 20 kt
SIGMETs :   Divers  Orages  Givrage  Turbulence  Onde Orograph.  Cendres Volcan.






- Altitude de l'aérodrome : 74 ft
- Code IATA : EIN


EHEH - Eindhoven

DERNIER METAR :
  • 240025Z AUTO 13004KT 120V230 8000 BR OVC340 05/04 Q1027 BLU

METARs EXPIRÉS :
  • 240000Z AUTO 14004KT 110V220 5000 BR OVC350 04/04 Q1027 WHT
  • 232348Z AUTO 14003KT 110V200 4100 BR OVC350 04/04 Q1027 GRN
  • 232325Z AUTO 14004KT 120V240 5000 BR BKN350 05/05 Q1027 WHT
  • 232301Z AUTO 14005KT 120V190 7000 BR NCD 06/05 Q1027 WHT
  • 232259Z AUTO 14005KT 120V190 8000 BR SCT310 06/05 Q1027 BLU
  • 232255Z AUTO 14005KT 120V190 7000 BR BKN310 06/05 Q1027 WHT
  • 232225Z AUTO 14005KT 120V200 6000 BR OVC300 06/05 Q1027 WHT
  • 232201Z AUTO 13005KT 6000 BR OVC320 06/06 Q1027 WHT
  • 232159Z AUTO 13005KT 120V220 7000 BR OVC330 06/06 Q1027 WHT
  • 232141Z AUTO 13005KT 7000 BR OVC340 07/06 Q1027 WHT NOSIG
  • 232125Z AUTO 13005KT 110V190 9999 OVC330 07/06 Q1027 BLU NOSIG

TAF TAF EHEH
Valide du 24 à 00h jusqu'au 25 à 06h UTC


232303Z 2400/2506 13005KT CAVOK
PROB40 2400/2408 2000 BR MIFG
BECMG 2416/2418 19007KT



MET'MAP, la Météo Aéronautique d'un coup d'oeil ! - Copyright ORBIFLY Décembre 2007 - Disclaimer

ORBIFLY MET'MAP TEAM :

Programmation & Développement : Alexandra Zaïnal
Sur une idée originale de : Baudouin d'Aumeries
Assistance à la programmation : Marc-Olivier Méhu
Soutien technique & logistique : Manuel Goepfert

Contact : metmap@orbifly.com




SOURCES & CREDITS :

   NOAA